Time;durP1;ratioP1;P1;durP2;ratioP2;P2;SDS_P1;SDS_P2;PMS_P1;PMS_P2;Temp;Humidity;BMP_temperature;BMP_pressure;BME280_temperature;BME280_humidity;BME280_pressure;Samples;Min_cycle;Max_cycle;Signal;HPM_P1;HPM_P2
2021/01/04 00:01:44;;;;;;;74.63;24.60;;;;;;;7.85;93.39;96929.50;6214690;23;20178;-85
2021/01/04 00:04:45;;;;;;;58.43;24.20;;;;;;;7.81;93.48;96933.31;6214340;23;20202;-86
2021/01/04 00:07:39;;;;;;;87.93;31.20;;;;;;;7.91;93.19;96933.41;6191685;23;20170;-85
2021/01/04 00:10:24;;;;;;;77.13;25.37;;;;;;;7.85;93.34;96931.28;6214819;23;20516;-85
2021/01/04 00:12:56;;;;;;;78.10;28.20;;;;;;;7.82;93.38;96921.88;6214641;23;20488;-85
2021/01/04 00:15:27;;;;;;;54.93;20.03;;;;;;;7.79;93.51;96914.31;6214225;23;20178;-85
2021/01/04 00:18:23;;;;;;;65.83;22.57;;;;;;;7.67;93.74;96912.69;6214360;23;20169;-85
2021/01/04 00:20:55;;;;;;;46.13;18.93;;;;;;;7.65;93.85;96898.88;6206986;23;20508;-85
2021/01/04 00:23:34;;;;;;;52.57;22.90;;;;;;;7.78;93.55;96902.16;6214082;23;20272;-85
2021/01/04 00:26:06;;;;;;;56.97;21.13;;;;;;;7.82;93.51;96908.81;6214075;23;20162;-85
2021/01/04 00:28:36;;;;;;;45.53;22.67;;;;;;;7.85;93.64;96915.59;6214333;23;20166;-85
2021/01/04 00:31:06;;;;;;;39.10;19.93;;;;;;;7.82;93.76;96918.44;6214490;23;20524;-85
2021/01/04 00:33:37;;;;;;;37.83;16.03;;;;;;;7.76;93.89;96903.25;6214641;23;20236;-86
2021/01/04 00:36:12;;;;;;;32.20;16.07;;;;;;;7.85;93.77;96911.16;6214236;23;20166;-85
2021/01/04 00:39:18;;;;;;;44.83;18.10;;;;;;;7.92;93.51;96908.06;6214238;23;20164;-85
2021/01/04 00:42:00;;;;;;;87.97;22.23;;;;;;;7.79;93.79;96906.47;6214217;23;20193;-85
2021/01/04 00:44:46;;;;;;;130.93;30.53;;;;;;;7.74;93.98;96907.78;6214359;23;20169;-85
2021/01/04 00:47:25;;;;;;;66.90;20.90;;;;;;;7.65;94.18;96909.34;6214729;23;20566;-85
2021/01/04 00:50:00;;;;;;;61.67;18.60;;;;;;;7.67;94.11;96898.78;6214177;23;20193;-85
2021/01/04 00:52:36;;;;;;;50.87;17.17;;;;;;;7.79;93.94;96914.31;6214456;23;20155;-86
2021/01/04 00:55:22;;;;;;;65.57;17.33;;;;;;;7.70;94.02;96911.63;6214458;23;20162;-86
2021/01/04 00:58:11;;;;;;;115.67;23.63;;;;;;;7.71;93.17;96906.25;6214216;23;20170;-86
2021/01/04 01:00:43;;;;;;;31.67;16.00;;;;;;;7.68;93.74;96895.19;6214257;23;20166;-85
2021/01/04 01:03:35;;;;;;;26.53;14.43;;;;;;;7.73;93.94;96893.88;6214778;23;20265;-85
2021/01/04 01:06:15;;;;;;;29.80;16.20;;;;;;;7.79;93.87;96890.75;6216129;23;20166;-86
2021/01/04 01:08:42;;;;;;;27.90;16.33;;;;;;;7.82;93.90;96881.81;6216165;23;20220;-85
2021/01/04 01:11:13;;;;;;;22.00;13.53;;;;;;;7.85;93.79;96879.78;6216338;23;20571;-86
2021/01/04 01:14:06;;;;;;;65.17;16.40;;;;;;;7.81;93.99;96896.69;6216111;23;20163;-85
2021/01/04 01:17:03;;;;;;;41.13;20.67;;;;;;;7.79;94.05;96893.38;6216652;23;20505;-86
2021/01/04 01:19:36;;;;;;;36.37;20.53;;;;;;;7.87;94.00;96892.75;6204220;23;20159;-86
2021/01/04 01:22:05;;;;;;;26.13;17.00;;;;;;;7.84;94.87;96891.19;6216431;23;20701;-86
2021/01/04 01:24:33;;;;;;;23.73;15.13;;;;;;;7.81;95.08;96877.53;6216031;23;20174;-86
2021/01/04 01:27:12;;;;;;;19.83;13.90;;;;;;;7.91;94.97;96875.81;6215858;23;20170;-86
2021/01/04 01:30:15;;;;;;;19.17;14.03;;;;;;;7.86;95.08;96863.13;6215921;23;20162;-86
2021/01/04 01:33:03;;;;;;;17.83;12.30;;;;;;;7.97;94.90;96866.66;6216423;23;20207;-86
2021/01/04 01:35:44;;;;;;;13.67;10.60;;;;;;;8.00;94.78;96875.06;6215876;23;20162;-85
2021/01/04 01:38:29;;;;;;;17.77;11.87;;;;;;;8.07;94.61;96878.84;6216296;23;20221;-86
2021/01/04 01:41:32;;;;;;;17.70;13.03;;;;;;;7.93;94.70;96880.91;6215776;23;20623;-86
2021/01/04 01:44:10;;;;;;;16.80;11.63;;;;;;;8.01;94.07;96868.03;6196984;23;20232;-86
2021/01/04 01:46:42;;;;;;;19.60;12.70;;;;;;;7.96;93.98;96868.41;6215623;23;20165;-86
2021/01/04 01:49:19;;;;;;;71.97;20.23;;;;;;;7.97;93.82;96864.03;6215708;23;20163;-85
2021/01/04 01:52:04;;;;;;;208.87;35.23;;;;;;;7.82;94.03;96866.09;6215486;23;20158;-85
2021/01/04 01:54:53;;;;;;;232.37;34.40;;;;;;;7.77;94.04;96858.66;6215671;23;20194;-85
2021/01/04 01:57:37;;;;;;;149.53;26.10;;;;;;;7.67;94.15;96865.59;6216050;23;20487;-85
2021/01/04 02:00:14;;;;;;;166.37;30.33;;;;;;;7.66;94.09;96853.47;6215593;23;20166;-85
2021/01/04 02:02:49;;;;;;;74.27;19.23;;;;;;;7.65;94.07;96849.19;6215549;23;20197;-86
2021/01/04 02:05:28;;;;;;;56.23;16.67;;;;;;;7.60;94.01;96830.44;6215360;23;20224;-85
2021/01/04 02:08:00;;;;;;;68.47;17.63;;;;;;;7.71;93.78;96832.16;6215161;23;20630;-85
2021/01/04 02:10:33;;;;;;;56.80;13.33;;;;;;;7.66;93.84;96824.69;6215298;23;20162;-85
2021/01/04 02:13:08;;;;;;;54.13;16.23;;;;;;;7.62;93.75;96825.91;6215501;23;20158;-85
2021/01/04 02:15:37;;;;;;;67.03;17.70;;;;;;;7.69;92.96;96813.97;6215376;23;20158;-85
2021/01/04 02:18:19;;;;;;;50.23;15.83;;;;;;;7.60;93.31;96804.28;6215453;23;20643;-85
2021/01/04 02:21:27;;;;;;;55.63;13.23;;;;;;;7.62;93.42;96794.53;6215447;23;20189;-86
2021/01/04 02:24:05;;;;;;;18.23;11.00;;;;;;;7.59;93.58;96786.91;6177161;23;20180;-85
2021/01/04 02:26:34;;;;;;;19.90;8.07;;;;;;;7.59;93.66;96776.47;6215495;23;20158;-86
2021/01/04 02:29:05;;;;;;;45.40;12.83;;;;;;;7.65;93.59;96773.31;6215344;23;20836;-86
2021/01/04 02:31:34;;;;;;;25.67;10.57;;;;;;;7.65;93.58;96775.91;6215304;23;20169;-86
2021/01/04 02:34:03;;;;;;;52.20;14.17;;;;;;;7.62;93.64;96763.94;6215356;23;20174;-86
2021/01/04 02:36:33;;;;;;;49.30;12.93;;;;;;;7.67;93.54;96762.72;6215259;23;20174;-86
2021/01/04 02:39:09;;;;;;;87.57;16.50;;;;;;;7.66;93.52;96771.53;6215481;23;20209;-86
2021/01/04 02:41:59;;;;;;;112.97;17.67;;;;;;;7.61;93.64;96767.50;6214995;23;20162;-85
2021/01/04 02:44:27;;;;;;;113.00;21.73;;;;;;;7.61;93.73;96771.91;6215169;23;20163;-86
2021/01/04 02:47:16;;;;;;;40.63;12.77;;;;;;;7.57;93.80;96762.66;6215053;23;20249;-86
2021/01/04 02:49:52;;;;;;;65.37;18.03;;;;;;;7.63;93.64;96757.75;6215455;23;20165;-85
2021/01/04 02:52:29;;;;;;;32.57;13.50;;;;;;;7.65;93.57;96754.16;6215685;23;20547;-85
2021/01/04 02:55:10;;;;;;;23.03;10.83;;;;;;;7.57;93.69;96747.78;6215084;23;20224;-85
2021/01/04 02:57:46;;;;;;;12.47;8.77;;;;;;;7.57;93.62;96747.78;6215402;23;20166;-86
2021/01/04 03:00:19;;;;;;;21.73;9.83;;;;;;;7.72;93.33;96750.91;6215155;23;20163;-86
2021/01/04 03:02:51;;;;;;;19.37;10.37;;;;;;;7.71;93.29;96743.19;6215483;23;20201;-86
2021/01/04 03:05:23;;;;;;;38.63;14.30;;;;;;;7.66;93.32;96746.22;6214762;23;20594;-85
2021/01/04 03:07:53;;;;;;;50.33;14.40;;;;;;;7.69;93.32;96745.94;6214964;23;20170;-85
2021/01/04 03:10:30;;;;;;;28.10;10.63;;;;;;;7.67;93.32;96732.16;6214743;23;20174;-86
2021/01/04 03:13:08;;;;;;;35.03;16.33;;;;;;;7.65;93.29;96728.84;6216020;23;20154;-86
2021/01/04 03:15:52;;;;;;;31.17;13.77;;;;;;;7.58;93.39;96723.28;6215252;23;20604;-86
2021/01/04 03:18:25;;;;;;;29.30;16.10;;;;;;;7.75;93.10;96723.66;6214994;23;20604;-85
2021/01/04 03:20:52;;;;;;;37.00;15.57;;;;;;;7.79;92.96;96720.66;6214861;23;20159;-86
2021/01/04 03:23:19;;;;;;;27.60;14.53;;;;;;;7.69;93.09;96735.50;6215038;23;20503;-85
2021/01/04 03:25:53;;;;;;;56.90;18.43;;;;;;;7.71;93.09;96748.44;6214831;23;20337;-85
2021/01/04 03:28:24;;;;;;;27.27;13.07;;;;;;;7.76;92.98;96744.47;6214784;23;20220;-85
2021/01/04 03:30:51;;;;;;;45.00;13.73;;;;;;;7.84;92.75;96738.59;6215039;23;20186;-85
2021/01/04 03:33:18;;;;;;;54.90;16.33;;;;;;;7.72;92.92;96732.59;6214756;23;20197;-86
2021/01/04 03:35:45;;;;;;;42.67;11.70;;;;;;;7.74;92.78;96725.44;6214712;23;20162;-86
2021/01/04 03:38:12;;;;;;;50.97;13.33;;;;;;;7.74;92.78;96707.13;6214640;23;20174;-86
2021/01/04 03:40:40;;;;;;;59.70;14.47;;;;;;;7.59;93.02;96722.34;6214629;23;20228;-86
2021/01/04 03:43:08;;;;;;;69.10;15.30;;;;;;;7.73;92.81;96720.34;6214838;23;20198;-86
2021/01/04 03:45:35;;;;;;;50.03;13.10;;;;;;;7.61;92.93;96711.75;6214585;23;20215;-86
2021/01/04 03:48:01;;;;;;;49.93;13.17;;;;;;;7.65;92.90;96713.13;6214393;23;20232;-86
2021/01/04 03:50:28;;;;;;;73.40;15.73;;;;;;;7.68;92.79;96717.28;6214722;23;20674;-86
2021/01/04 03:52:55;;;;;;;31.43;10.83;;;;;;;7.54;92.98;96721.06;6214713;23;20170;-86
2021/01/04 03:55:22;;;;;;;58.73;14.43;;;;;;;7.57;92.90;96712.97;6214549;23;20209;-86
2021/01/04 03:57:49;;;;;;;51.70;15.70;;;;;;;7.67;92.71;96706.00;6214523;23;20181;-86
2021/01/04 04:00:19;;;;;;;52.17;13.63;;;;;;;7.62;92.76;96708.19;6214642;23;20491;-86
2021/01/04 04:02:46;;;;;;;54.73;17.77;;;;;;;7.69;92.57;96708.47;6214273;23;20194;-86
2021/01/04 04:05:16;;;;;;;36.93;14.27;;;;;;;7.62;92.57;96697.72;6214104;23;20213;-85
2021/01/04 04:07:43;;;;;;;24.77;15.67;;;;;;;7.74;92.36;96701.91;6214497;23;20181;-85
2021/01/04 04:10:11;;;;;;;20.03;13.53;;;;;;;7.73;92.34;96700.25;6214798;23;20249;-86
2021/01/04 04:12:38;;;;;;;41.43;19.90;;;;;;;7.87;92.09;96701.69;6214484;23;20170;-86
2021/01/04 04:15:10;;;;;;;97.43;24.33;;;;;;;7.95;91.92;96695.78;6214748;23;20177;-86
2021/01/04 04:17:38;;;;;;;64.23;21.37;;;;;;;7.86;91.99;96687.78;6214480;23;20241;-86
2021/01/04 04:20:06;;;;;;;40.97;16.83;;;;;;;7.88;91.96;96686.81;6214514;23;20181;-86
2021/01/04 04:22:33;;;;;;;93.00;23.37;;;;;;;7.80;89.18;96685.69;6214799;23;20194;-85
2021/01/04 04:25:00;;;;;;;115.47;23.03;;;;;;;7.78;89.55;96671.06;6214472;23;20646;-90
2021/01/04 04:27:26;;;;;;;56.90;19.10;;;;;;;7.82;89.64;96667.22;6215010;23;20166;-86
2021/01/04 04:29:54;;;;;;;37.90;14.60;;;;;;;7.82;89.67;96656.75;6214519;23;20174;-86
2021/01/04 04:32:21;;;;;;;67.90;15.60;;;;;;;7.78;89.79;96656.19;6214448;23;20205;-86
2021/01/04 04:34:49;;;;;;;33.27;13.53;;;;;;;7.83;89.82;96658.44;6214365;23;20175;-86
2021/01/04 04:37:16;;;;;;;53.87;15.57;;;;;;;7.78;89.88;96653.56;6214918;23;20174;-85
2021/01/04 04:39:43;;;;;;;52.87;14.60;;;;;;;7.82;89.92;96648.91;6216791;23;20570;-86
2021/01/04 04:42:12;;;;;;;79.80;18.60;;;;;;;7.82;89.94;96641.88;6216755;23;20534;-87
2021/01/04 04:44:45;;;;;;;53.53;15.03;;;;;;;7.78;89.99;96648.34;6216486;23;20174;-85
2021/01/04 04:47:44;;;;;;;63.33;16.80;;;;;;;7.82;89.99;96649.72;6216426;23;20170;-86
2021/01/04 04:50:29;;;;;;;64.53;19.17;;;;;;;7.85;89.96;96640.78;6206990;23;20174;-87
2021/01/04 04:53:28;;;;;;;197.20;32.17;;;;;;;7.82;90.00;96652.34;6216875;23;20232;-86
2021/01/04 04:56:13;;;;;;;72.87;22.53;;;;;;;7.76;90.08;96655.50;6216940;23;20161;-87
2021/01/04 04:58:49;;;;;;;179.73;31.63;;;;;;;7.79;90.05;96660.50;6216556;23;20200;-87
2021/01/04 05:01:27;;;;;;;140.13;21.57;;;;;;;7.83;90.02;96667.09;6216399;23;20168;-85
2021/01/04 05:04:27;;;;;;;123.03;20.80;;;;;;;7.74;90.11;96660.03;6215610;23;20596;-87
2021/01/04 05:07:00;;;;;;;179.37;31.20;;;;;;;7.76;90.08;96647.66;6216186;23;20166;-87
2021/01/04 05:09:59;;;;;;;99.93;28.33;;;;;;;7.75;90.07;96643.38;6216043;23;20182;-87
2021/01/04 05:12:41;;;;;;;80.30;24.70;;;;;;;7.82;89.99;96643.66;6204358;23;20568;-87
2021/01/04 05:15:30;;;;;;;45.07;18.43;;;;;;;7.84;90.02;96644.38;6216750;23;20212;-87
2021/01/04 05:18:41;;;;;;;92.87;30.27;;;;;;;7.85;89.95;96636.38;6216114;23;20166;-87
2021/01/04 05:21:49;;;;;;;84.97;26.47;;;;;;;7.88;89.95;96640.53;6206597;23;20170;-86
2021/01/04 05:24:46;;;;;;;31.57;16.20;;;;;;;7.89;89.92;96634.31;6151408;23;20175;-87
2021/01/04 05:27:52;;;;;;;27.30;15.97;;;;;;;7.89;89.89;96479.09;6216295;23;20162;-87
2021/01/04 05:30:33;;;;;;;27.97;15.70;;;;;;;7.93;89.83;96488.31;6216412;23;20228;-87
2021/01/04 05:33:33;;;;;;;24.40;16.60;;;;;;;7.98;89.82;96492.19;6216310;23;20166;-87
2021/01/04 05:36:13;;;;;;;27.43;17.33;;;;;;;7.94;90.38;96495.25;6215980;23;20236;-87
2021/01/04 05:38:49;;;;;;;28.77;16.53;;;;;;;8.00;90.52;96489.44;6216559;23;20189;-87
2021/01/04 05:41:37;;;;;;;42.60;23.17;;;;;;;8.01;90.59;96483.25;6216203;23;20212;-87
2021/01/04 05:44:20;;;;;;;32.17;17.63;;;;;;;7.97;90.58;96487.13;6215866;23;20159;-87
2021/01/04 05:46:51;;;;;;;29.90;18.70;;;;;;;7.96;90.53;96491.50;6216146;23;20162;-86
2021/01/04 05:49:27;;;;;;;116.80;23.40;;;;;;;8.03;90.45;96486.53;6215447;23;20166;-87
2021/01/04 05:51:54;;;;;;;102.83;27.50;;;;;;;7.97;90.51;96487.94;6216345;23;20158;-87
2021/01/04 05:54:29;;;;;;;30.80;17.00;;;;;;;7.98;90.50;96491.38;6215826;23;20217;-87
2021/01/04 05:57:08;;;;;;;23.30;15.37;;;;;;;8.00;90.52;96482.44;6215826;23;20169;-88
2021/01/04 05:59:46;;;;;;;25.23;16.53;;;;;;;7.96;91.63;96480.22;6216080;23;20691;-87
2021/01/04 06:02:22;;;;;;;28.40;19.77;;;;;;;8.04;91.70;96489.03;6215855;23;20182;-88
2021/01/04 06:04:49;;;;;;;24.10;15.90;;;;;;;7.97;91.79;96492.34;6215709;23;20205;-88
2021/01/04 06:07:18;;;;;;;37.50;20.03;;;;;;;7.99;91.85;96487.78;6215976;23;20189;-90
2021/01/04 06:09:55;;;;;;;30.83;19.67;;;;;;;8.04;91.81;96482.97;6216080;23;20497;-87
2021/01/04 06:12:33;;;;;;;29.80;17.60;;;;;;;8.01;92.25;96483.25;6215577;23;20211;-87
2021/01/04 06:15:00;;;;;;;29.20;19.37;;;;;;;8.01;92.11;96491.94;6215568;23;20165;-85
2021/01/04 06:17:34;;;;;;;42.77;21.03;;;;;;;7.96;92.12;96490.66;6215504;23;20174;-85
2021/01/04 06:20:18;;;;;;;42.60;23.03;;;;;;;7.89;92.22;96486.94;6215578;23;20607;-85
2021/01/04 06:22:45;;;;;;;27.40;19.40;;;;;;;7.94;92.20;96493.44;6215147;23;20178;-86
2021/01/04 06:25:16;;;;;;;32.50;23.47;;;;;;;7.94;92.20;96482.97;6215790;23;20590;-86
2021/01/04 06:27:47;;;;;;;27.73;19.33;;;;;;;7.95;92.23;96468.09;6215196;23;20162;-85
2021/01/04 06:30:20;;;;;;;29.07;19.33;;;;;;;7.97;92.18;96458.31;6214923;23;20198;-83
2021/01/04 06:32:50;;;;;;;26.63;18.53;;;;;;;7.96;92.26;96454.03;6215172;23;20159;-84
2021/01/04 06:35:27;;;;;;;29.17;20.67;;;;;;;8.03;92.24;96455.13;6215255;23;20170;-85
2021/01/04 06:38:08;;;;;;;33.67;24.43;;;;;;;8.05;92.15;96458.44;6216024;23;20158;-92
2021/01/04 06:40:38;;;;;;;34.43;21.57;;;;;;;8.08;92.18;96459.00;6215027;23;20616;-86
2021/01/04 06:43:18;;;;;;;29.97;19.47;;;;;;;8.04;92.27;96472.50;6215018;23;20222;-85
2021/01/04 06:46:02;;;;;;;29.20;19.77;;;;;;;8.15;92.17;96471.53;6215034;23;20201;-85
2021/01/04 06:48:38;;;;;;;36.20;24.33;;;;;;;8.23;92.55;96472.50;6215168;23;20607;-85
2021/01/04 06:51:32;;;;;;;31.20;22.90;;;;;;;8.14;92.48;96477.72;6214890;23;20208;-86
2021/01/04 06:54:40;;;;;;;27.27;20.80;;;;;;;8.22;92.38;96475.25;6215121;23;20162;-85
2021/01/04 06:57:23;;;;;;;31.53;20.33;;;;;;;8.39;92.21;96473.75;6172660;23;20170;-85
2021/01/04 07:00:29;;;;;;;26.20;19.83;;;;;;;8.42;92.51;96468.25;6214745;23;20169;-85
2021/01/04 07:03:41;;;;;;;25.73;18.17;;;;;;;8.54;92.63;96467.09;6208014;23;20204;-85
2021/01/04 07:06:49;;;;;;;26.03;18.30;;;;;;;8.57;92.93;96464.22;6214858;23;20205;-85
2021/01/04 07:09:49;;;;;;;25.97;19.37;;;;;;;8.60;93.03;96468.34;6181846;23;20248;-85
2021/01/04 07:12:24;;;;;;;21.07;17.43;;;;;;;8.53;93.28;96462.84;6214703;23;20158;-85
2021/01/04 07:15:15;;;;;;;28.63;18.63;;;;;;;8.62;93.24;96464.59;6214763;23;20173;-85
2021/01/04 07:18:03;;;;;;;27.03;18.10;;;;;;;8.74;93.35;96478.38;6215079;23;20159;-85
2021/01/04 07:20:40;;;;;;;31.70;20.30;;;;;;;8.70;93.42;96477.84;6214588;23;20181;-85
2021/01/04 07:23:24;;;;;;;23.33;17.47;;;;;;;8.60;93.61;96471.78;6214584;23;20651;-85
2021/01/04 07:26:00;;;;;;;24.93;16.83;;;;;;;8.49;93.90;96477.19;6214974;23;20259;-85
2021/01/04 07:28:50;;;;;;;24.97;17.40;;;;;;;8.51;93.86;96480.47;6214733;23;20237;-85
2021/01/04 07:31:30;;;;;;;28.43;17.43;;;;;;;8.53;93.86;96478.56;6214967;23;20501;-85
2021/01/04 07:34:01;;;;;;;28.80;18.73;;;;;;;8.57;93.81;96464.22;6214581;23;20233;-85
2021/01/04 07:36:39;;;;;;;27.23;17.90;;;;;;;8.61;93.78;96464.75;6214308;23;20194;-85
2021/01/04 07:39:29;;;;;;;27.37;18.93;;;;;;;8.62;93.74;96464.59;6214594;23;20236;-84
2021/01/04 07:42:15;;;;;;;29.83;22.33;;;;;;;8.70;93.63;96456.06;6214745;23;20158;-85
2021/01/04 07:45:17;;;;;;;26.07;19.73;;;;;;;8.67;94.14;96446.69;6214898;23;20158;-85
2021/01/04 07:48:19;;;;;;;27.37;22.60;;;;;;;8.73;94.28;96435.63;6187223;23;20174;-85
2021/01/04 07:51:10;;;;;;;68.20;51.63;;;;;;;8.77;94.05;96441.41;6214833;23;20212;-85
2021/01/04 07:54:08;;;;;;;76.83;68.00;;;;;;;8.78;94.21;96438.63;6214441;23;20155;-85
2021/01/04 07:57:08;;;;;;;29.00;18.53;;;;;;;8.81;94.36;96446.22;6214577;23;20198;-85
2021/01/04 08:00:00;;;;;;;28.33;20.13;;;;;;;8.87;94.55;96443.97;6214349;23;20178;-85
2021/01/04 08:03:17;;;;;;;22.00;16.13;;;;;;;8.74;95.44;96439.91;6214504;23;20182;-85
2021/01/04 08:06:20;;;;;;;24.23;15.60;;;;;;;8.64;95.15;96443.50;6214764;23;20170;-84
2021/01/04 08:08:55;;;;;;;20.70;14.90;;;;;;;8.71;94.71;96442.78;6214023;23;20181;-85
2021/01/04 08:11:59;;;;;;;20.57;15.87;;;;;;;8.77;94.89;96441.41;6214207;23;20611;-85
2021/01/04 08:14:50;;;;;;;21.50;14.87;;;;;;;8.74;94.94;96434.66;6214459;23;20177;-85
2021/01/04 08:17:47;;;;;;;22.53;17.07;;;;;;;8.76;94.92;96431.88;6214189;23;20194;-85
2021/01/04 08:20:14;;;;;;;19.50;15.60;;;;;;;8.80;94.95;96433.25;6189706;23;20562;-85
2021/01/04 08:23:07;;;;;;;22.50;14.97;;;;;;;8.91;94.80;96421.78;6214276;23;20305;-85
2021/01/04 08:25:59;;;;;;;20.17;14.17;;;;;;;8.88;94.99;96422.06;6214153;23;20209;-85
2021/01/04 08:28:38;;;;;;;18.77;13.70;;;;;;;8.97;95.08;96418.53;6214219;23;20224;-85
2021/01/04 08:31:14;;;;;;;20.67;14.73;;;;;;;9.04;95.17;96425.72;6214026;23;20339;-85
2021/01/04 08:33:49;;;;;;;14.87;13.33;;;;;;;9.03;95.43;96417.97;6214341;23;20162;-85
2021/01/04 08:36:20;;;;;;;20.13;14.27;;;;;;;9.08;95.62;96418.38;6213942;23;20162;-85
2021/01/04 08:38:47;;;;;;;23.50;14.97;;;;;;;9.08;95.30;96409.69;6214253;23;20165;-85
2021/01/04 08:41:30;;;;;;;18.80;11.17;;;;;;;9.13;95.48;96402.19;6213850;23;20178;-85
2021/01/04 08:43:57;;;;;;;19.20;10.83;;;;;;;9.05;95.96;96400.31;6214065;23;20190;-85
2021/01/04 08:46:32;;;;;;;16.03;11.73;;;;;;;9.14;95.71;96393.34;6214065;23;20174;-85
2021/01/04 08:49:17;;;;;;;21.50;12.63;;;;;;;9.15;95.82;96384.53;6214096;23;20630;-85
2021/01/04 08:51:45;;;;;;;16.83;11.20;;;;;;;9.18;96.24;96381.59;6214105;23;20624;-85
2021/01/04 08:54:26;;;;;;;22.37;11.97;;;;;;;9.22;95.90;96378.56;6214429;23;20705;-85
2021/01/04 08:57:06;;;;;;;19.53;10.30;;;;;;;9.24;96.24;96368.72;6214352;23;20300;-86
2021/01/04 08:59:33;;;;;;;14.83;9.63;;;;;;;9.26;96.38;96365.97;6214138;23;20169;-85
2021/01/04 09:02:20;;;;;;;27.43;15.83;;;;;;;9.29;96.23;96356.00;6214264;23;20170;-86
2021/01/04 09:05:00;;;;;;;32.23;18.23;;;;;;;9.28;96.36;96351.75;6213867;23;20201;-85
2021/01/04 09:07:28;;;;;;;27.40;14.07;;;;;;;9.16;96.76;96336.34;6214068;23;20519;-86
2021/01/04 09:10:00;;;;;;;16.50;10.33;;;;;;;9.18;96.97;96347.50;6213769;23;20170;-85
2021/01/04 09:12:37;;;;;;;35.33;19.73;;;;;;;9.21;97.06;96337.56;6214319;23;20159;-85
2021/01/04 09:15:08;;;;;;;20.97;12.80;;;;;;;9.22;97.15;96341.03;6214063;23;20163;-85
2021/01/04 09:17:44;;;;;;;18.60;9.43;;;;;;;9.22;97.35;96341.03;6214212;23;20232;-85
2021/01/04 09:20:29;;;;;;;26.20;13.77;;;;;;;9.24;97.53;96334.63;6214033;23;20237;-86
2021/01/04 09:23:06;;;;;;;17.50;10.47;;;;;;;9.18;97.72;96331.78;6210364;23;20745;-85
2021/01/04 09:25:46;;;;;;;22.77;11.50;;;;;;;9.13;97.62;96329.59;6216196;23;20583;-85
2021/01/04 09:28:16;;;;;;;13.33;9.10;;;;;;;9.18;98.13;96330.00;6215651;23;20193;-85
2021/01/04 09:30:43;;;;;;;16.97;9.53;;;;;;;9.20;98.46;96321.97;6215612;23;20213;-85
2021/01/04 09:33:13;;;;;;;13.33;9.03;;;;;;;9.22;98.81;96315.63;6215688;23;20209;-85
2021/01/04 09:35:40;;;;;;;19.27;11.63;;;;;;;9.21;98.97;96310.50;6215880;23;20257;-85
2021/01/04 09:38:10;;;;;;;14.83;10.10;;;;;;;9.19;99.35;96313.28;6215562;23;20270;-85
2021/01/04 09:40:38;;;;;;;18.97;12.93;;;;;;;9.15;99.87;96305.88;6215864;23;20198;-85
2021/01/04 09:43:07;;;;;;;15.07;10.93;;;;;;;9.18;100.00;96303.78;6215527;23;20198;-85
2021/01/04 09:45:35;;;;;;;13.33;8.93;;;;;;;9.18;100.00;96297.69;6215253;23;20656;-85
2021/01/04 09:48:05;;;;;;;18.13;9.73;;;;;;;9.22;100.00;96302.50;6215342;23;20182;-85
2021/01/04 09:50:36;;;;;;;17.60;8.70;;;;;;;9.12;100.00;96299.13;6203710;23;20194;-85
2021/01/04 09:53:09;;;;;;;11.80;8.27;;;;;;;9.19;100.00;96296.72;6215763;23;20590;-85
2021/01/04 09:55:41;;;;;;;16.93;11.13;;;;;;;9.14;100.00;96288.47;6215753;23;20518;-85
2021/01/04 09:58:08;;;;;;;13.93;8.83;;;;;;;9.19;100.00;96278.38;6215557;23;20190;-85
2021/01/04 10:00:38;;;;;;;13.70;7.93;;;;;;;9.15;100.00;96275.22;6215944;23;20174;-85
2021/01/04 10:03:10;;;;;;;21.30;13.70;;;;;;;9.16;100.00;96276.03;6215163;23;20446;-85
2021/01/04 10:05:41;;;;;;;18.80;10.73;;;;;;;9.12;100.00;96269.47;6215377;23;20167;-85
2021/01/04 10:08:12;;;;;;;16.43;9.30;;;;;;;9.17;100.00;96257.53;6215156;23;20168;-86
2021/01/04 10:10:41;;;;;;;17.67;9.23;;;;;;;9.17;100.00;96247.03;6215382;23;20166;-85
2021/01/04 10:13:10;;;;;;;13.43;10.33;;;;;;;9.20;100.00;96246.75;6215257;23;20246;-84
2021/01/04 10:15:38;;;;;;;21.43;9.77;;;;;;;9.20;100.00;96246.75;6215384;23;20198;-85
2021/01/04 10:18:31;;;;;;;17.20;10.60;;;;;;;9.25;100.00;96236.63;6215653;23;20536;-85
2021/01/04 10:20:59;;;;;;;21.37;10.90;;;;;;;9.23;100.00;96235.13;6214892;23;20170;-85
2021/01/04 10:23:31;;;;;;;15.50;8.07;;;;;;;9.20;100.00;96233.63;6215046;23;20229;-85
2021/01/04 10:26:01;;;;;;;13.27;8.60;;;;;;;9.27;100.00;96225.97;6215170;23;20185;-85
2021/01/04 10:28:31;;;;;;;13.90;9.40;;;;;;;9.29;100.00;96224.03;6202707;23;20170;-85
2021/01/04 10:31:04;;;;;;;15.60;9.20;;;;;;;9.26;100.00;96224.34;6215459;23;20217;-85
2021/01/04 10:33:34;;;;;;;12.93;8.07;;;;;;;9.25;100.00;96222.72;6215378;23;20193;-85
2021/01/04 10:36:08;;;;;;;17.93;8.73;;;;;;;9.32;100.00;96218.50;6214716;23;20223;-85
2021/01/04 10:38:39;;;;;;;14.03;9.13;;;;;;;9.36;100.00;96211.16;6215285;23;20165;-85
2021/01/04 10:41:13;;;;;;;15.97;9.20;;;;;;;9.35;100.00;96202.47;6215401;23;20600;-85
2021/01/04 10:43:40;;;;;;;13.83;7.93;;;;;;;9.42;100.00;96187.75;6214831;23;20182;-85
2021/01/04 10:46:22;;;;;;;14.23;7.97;;;;;;;9.53;100.00;96184.88;6214818;23;20174;-85
2021/01/04 10:49:02;;;;;;;11.00;7.67;;;;;;;9.51;100.00;96178.13;6214996;23;20296;-85
2021/01/04 10:51:30;;;;;;;12.07;8.87;;;;;;;9.52;100.00;96174.53;6215108;23;20550;-85
2021/01/04 10:53:57;;;;;;;15.07;9.97;;;;;;;9.58;100.00;96181.78;6214711;23;20171;-85
2021/01/04 10:56:38;;;;;;;12.03;9.03;;;;;;;9.64;100.00;96186.41;6215107;23;20166;-85
2021/01/04 10:59:15;;;;;;;13.27;9.57;;;;;;;9.63;100.00;96195.28;6214887;23;20165;-84
2021/01/04 11:01:45;;;;;;;18.23;8.53;;;;;;;9.65;100.00;96195.94;6214699;23;20190;-85
2021/01/04 11:04:14;;;;;;;15.23;8.57;;;;;;;9.66;100.00;96192.31;6214438;23;20202;-84
2021/01/04 11:06:43;;;;;;;16.10;9.83;;;;;;;9.61;100.00;96186.72;6214989;23;20189;-85
2021/01/04 11:09:20;;;;;;;18.10;9.83;;;;;;;9.62;100.00;96167.38;6214599;23;20178;-85
2021/01/04 11:11:50;;;;;;;15.00;9.17;;;;;;;9.60;100.00;96161.47;6215038;23;20220;-85
2021/01/04 11:14:20;;;;;;;22.97;10.70;;;;;;;9.61;100.00;96159.66;6214556;23;20181;-84
2021/01/04 11:16:50;;;;;;;16.43;9.97;;;;;;;9.57;100.00;96143.41;6214801;23;20170;-85
2021/01/04 11:19:28;;;;;;;14.17;10.17;;;;;;;9.62;100.00;96146.38;6214765;23;20201;-84
2021/01/04 11:21:56;;;;;;;15.80;8.80;;;;;;;9.62;100.00;96150.81;6214500;23;20162;-85
2021/01/04 11:24:22;;;;;;;17.27;9.90;;;;;;;9.67;100.00;96148.56;6214375;23;20229;-84
2021/01/04 11:26:49;;;;;;;16.20;10.37;;;;;;;9.72;100.00;96138.41;6214334;23;20174;-85
2021/01/04 11:29:16;;;;;;;17.17;10.53;;;;;;;9.70;100.00;96133.31;6214458;23;20205;-85
2021/01/04 11:31:43;;;;;;;23.27;11.40;;;;;;;9.78;100.00;96132.53;6214812;23;20551;-84
2021/01/04 11:34:10;;;;;;;24.70;15.17;;;;;;;9.80;100.00;96117.44;6214867;23;20228;-85
2021/01/04 11:36:36;;;;;;;35.17;20.20;;;;;;;9.83;100.00;96109.25;6214536;23;20170;-85
2021/01/04 11:39:05;;;;;;;28.77;16.23;;;;;;;9.85;100.00;96093.34;6214529;23;20253;-85
2021/01/04 11:41:33;;;;;;;18.80;13.07;;;;;;;9.90;100.00;96086.63;6214297;23;20182;-85
2021/01/04 11:43:59;;;;;;;19.23;11.43;;;;;;;9.85;100.00;96080.22;6214273;23;20194;-85
2021/01/04 11:46:26;;;;;;;21.63;14.30;;;;;;;9.89;100.00;96071.88;6214250;23;20178;-85
2021/01/04 11:48:53;;;;;;;20.23;10.97;;;;;;;9.96;100.00;96059.75;6214844;23;20249;-85
2021/01/04 11:51:21;;;;;;;19.70;10.57;;;;;;;10.00;100.00;96049.75;6214533;23;20173;-85
2021/01/04 11:53:49;;;;;;;33.23;11.37;;;;;;;10.07;100.00;96050.75;6214350;23;20647;-85
2021/01/04 11:56:17;;;;;;;15.50;10.20;;;;;;;10.04;100.00;96055.50;6214166;23;20257;-85
2021/01/04 11:58:46;;;;;;;18.73;10.30;;;;;;;10.05;100.00;96054.53;6214317;23;20229;-85
2021/01/04 12:01:13;;;;;;;15.77;10.10;;;;;;;10.00;100.00;96044.50;6214249;23;20174;-85
2021/01/04 12:03:40;;;;;;;20.60;13.87;;;;;;;10.03;100.00;96035.47;6214199;23;20599;-85
2021/01/04 12:06:08;;;;;;;15.17;9.97;;;;;;;10.04;100.00;96031.88;6214315;23;20204;-85
2021/01/04 12:08:35;;;;;;;14.37;9.23;;;;;;;10.06;100.00;96032.53;6213745;23;20232;-85
2021/01/04 12:11:02;;;;;;;21.43;11.67;;;;;;;10.07;100.00;96040.25;6214590;23;20252;-85